sensor_id;sensor_type;location;lat;lon;timestamp;P1;durP1;ratioP1;P2;durP2;ratioP2
20559;SDS011;10438;51.454;6.718;2023-02-01T00:01:13;18.30;;;4.60;;
20559;SDS011;10438;51.454;6.718;2023-02-01T00:03:39;24.03;;;5.07;;
20559;SDS011;10438;51.454;6.718;2023-02-01T00:06:04;18.93;;;4.50;;
20559;SDS011;10438;51.454;6.718;2023-02-01T00:08:30;20.57;;;4.43;;
20559;SDS011;10438;51.454;6.718;2023-02-01T00:11:03;20.83;;;5.07;;
20559;SDS011;10438;51.454;6.718;2023-02-01T00:13:31;24.93;;;5.90;;
20559;SDS011;10438;51.454;6.718;2023-02-01T00:16:11;22.73;;;5.13;;
20559;SDS011;10438;51.454;6.718;2023-02-01T00:18:42;18.53;;;4.13;;
20559;SDS011;10438;51.454;6.718;2023-02-01T00:21:10;22.60;;;4.37;;
20559;SDS011;10438;51.454;6.718;2023-02-01T00:23:36;14.50;;;3.50;;
20559;SDS011;10438;51.454;6.718;2023-02-01T00:26:04;16.33;;;3.60;;
20559;SDS011;10438;51.454;6.718;2023-02-01T00:28:31;19.47;;;3.97;;
20559;SDS011;10438;51.454;6.718;2023-02-01T00:31:00;18.90;;;3.60;;
20559;SDS011;10438;51.454;6.718;2023-02-01T00:33:28;16.63;;;3.33;;
20559;SDS011;10438;51.454;6.718;2023-02-01T00:35:58;18.40;;;4.47;;
20559;SDS011;10438;51.454;6.718;2023-02-01T00:38:32;20.67;;;4.43;;
20559;SDS011;10438;51.454;6.718;2023-02-01T00:41:03;26.03;;;5.63;;
20559;SDS011;10438;51.454;6.718;2023-02-01T00:43:30;23.17;;;4.60;;
20559;SDS011;10438;51.454;6.718;2023-02-01T00:45:57;18.53;;;4.50;;
20559;SDS011;10438;51.454;6.718;2023-02-01T00:48:22;21.13;;;5.50;;
20559;SDS011;10438;51.454;6.718;2023-02-01T00:50:48;15.93;;;4.07;;
20559;SDS011;10438;51.454;6.718;2023-02-01T00:53:14;20.00;;;5.17;;
20559;SDS011;10438;51.454;6.718;2023-02-01T00:55:39;21.90;;;4.47;;
20559;SDS011;10438;51.454;6.718;2023-02-01T00:58:05;22.43;;;4.33;;
20559;SDS011;10438;51.454;6.718;2023-02-01T01:00:31;22.63;;;4.60;;
20559;SDS011;10438;51.454;6.718;2023-02-01T01:02:57;15.57;;;4.93;;
20559;SDS011;10438;51.454;6.718;2023-02-01T01:05:23;20.17;;;5.73;;
20559;SDS011;10438;51.454;6.718;2023-02-01T01:07:48;21.43;;;5.83;;
20559;SDS011;10438;51.454;6.718;2023-02-01T01:10:14;23.50;;;6.17;;
20559;SDS011;10438;51.454;6.718;2023-02-01T01:12:40;18.40;;;5.37;;
20559;SDS011;10438;51.454;6.718;2023-02-01T01:15:06;20.77;;;6.27;;
20559;SDS011;10438;51.454;6.718;2023-02-01T01:17:32;18.63;;;4.97;;
20559;SDS011;10438;51.454;6.718;2023-02-01T01:19:58;21.57;;;6.60;;
20559;SDS011;10438;51.454;6.718;2023-02-01T01:22:23;19.67;;;5.83;;
20559;SDS011;10438;51.454;6.718;2023-02-01T01:24:49;21.60;;;5.87;;
20559;SDS011;10438;51.454;6.718;2023-02-01T01:27:14;20.07;;;5.77;;
20559;SDS011;10438;51.454;6.718;2023-02-01T01:29:40;23.13;;;5.93;;
20559;SDS011;10438;51.454;6.718;2023-02-01T01:32:05;18.03;;;5.97;;
20559;SDS011;10438;51.454;6.718;2023-02-01T01:34:31;25.23;;;6.40;;
20559;SDS011;10438;51.454;6.718;2023-02-01T01:36:56;26.13;;;6.07;;
20559;SDS011;10438;51.454;6.718;2023-02-01T01:39:22;16.27;;;5.97;;
20559;SDS011;10438;51.454;6.718;2023-02-01T01:41:47;19.77;;;5.93;;
20559;SDS011;10438;51.454;6.718;2023-02-01T01:47:16;21.77;;;5.17;;
20559;SDS011;10438;51.454;6.718;2023-02-01T01:49:42;19.87;;;4.73;;
20559;SDS011;10438;51.454;6.718;2023-02-01T01:52:08;18.97;;;4.70;;
20559;SDS011;10438;51.454;6.718;2023-02-01T01:54:45;19.27;;;4.43;;
20559;SDS011;10438;51.454;6.718;2023-02-01T01:57:21;17.60;;;4.60;;
20559;SDS011;10438;51.454;6.718;2023-02-01T01:59:57;19.03;;;4.90;;
20559;SDS011;10438;51.454;6.718;2023-02-01T02:02:29;19.33;;;4.73;;
20559;SDS011;10438;51.454;6.718;2023-02-01T02:04:55;23.40;;;4.50;;
20559;SDS011;10438;51.454;6.718;2023-02-01T02:07:28;20.43;;;4.83;;
20559;SDS011;10438;51.454;6.718;2023-02-01T02:09:56;17.70;;;4.00;;
20559;SDS011;10438;51.454;6.718;2023-02-01T02:12:22;18.53;;;4.13;;
20559;SDS011;10438;51.454;6.718;2023-02-01T02:14:48;19.73;;;3.57;;
20559;SDS011;10438;51.454;6.718;2023-02-01T02:17:18;17.53;;;3.57;;
20559;SDS011;10438;51.454;6.718;2023-02-01T02:25:28;26.67;;;4.47;;
20559;SDS011;10438;51.454;6.718;2023-02-01T02:31:15;20.77;;;3.67;;
20559;SDS011;10438;51.454;6.718;2023-02-01T02:34:08;20.07;;;3.47;;
20559;SDS011;10438;51.454;6.718;2023-02-01T02:42:38;19.50;;;3.50;;
20559;SDS011;10438;51.454;6.718;2023-02-01T02:45:23;15.67;;;3.13;;
20559;SDS011;10438;51.454;6.718;2023-02-01T02:48:19;15.17;;;3.10;;
20559;SDS011;10438;51.454;6.718;2023-02-01T02:56:37;21.23;;;3.10;;
20559;SDS011;10438;51.454;6.718;2023-02-01T02:59:23;23.50;;;3.53;;
20559;SDS011;10438;51.454;6.718;2023-02-01T03:02:10;14.33;;;3.27;;
20559;SDS011;10438;51.454;6.718;2023-02-01T03:04:55;19.23;;;3.07;;
20559;SDS011;10438;51.454;6.718;2023-02-01T03:15:51;20.50;;;3.17;;
20559;SDS011;10438;51.454;6.718;2023-02-01T03:21:31;14.50;;;2.90;;
20559;SDS011;10438;51.454;6.718;2023-02-01T03:24:10;13.73;;;3.20;;
20559;SDS011;10438;51.454;6.718;2023-02-01T03:26:37;17.17;;;3.40;;
20559;SDS011;10438;51.454;6.718;2023-02-01T03:29:09;18.47;;;3.53;;
20559;SDS011;10438;51.454;6.718;2023-02-01T03:31:39;16.33;;;3.50;;
20559;SDS011;10438;51.454;6.718;2023-02-01T03:34:05;19.03;;;3.33;;
20559;SDS011;10438;51.454;6.718;2023-02-01T03:36:40;25.13;;;3.80;;
20559;SDS011;10438;51.454;6.718;2023-02-01T03:39:48;14.17;;;3.50;;
20559;SDS011;10438;51.454;6.718;2023-02-01T03:42:46;19.40;;;3.47;;
20559;SDS011;10438;51.454;6.718;2023-02-01T03:45:20;18.03;;;4.13;;
20559;SDS011;10438;51.454;6.718;2023-02-01T03:47:59;19.97;;;3.57;;
20559;SDS011;10438;51.454;6.718;2023-02-01T03:50:26;18.60;;;3.40;;
20559;SDS011;10438;51.454;6.718;2023-02-01T03:52:58;14.37;;;3.40;;
20559;SDS011;10438;51.454;6.718;2023-02-01T03:55:30;19.90;;;3.30;;
20559;SDS011;10438;51.454;6.718;2023-02-01T03:57:58;19.13;;;4.50;;
20559;SDS011;10438;51.454;6.718;2023-02-01T04:00:31;24.90;;;4.37;;
20559;SDS011;10438;51.454;6.718;2023-02-01T04:02:57;19.73;;;3.67;;
20559;SDS011;10438;51.454;6.718;2023-02-01T04:05:23;17.83;;;3.90;;
20559;SDS011;10438;51.454;6.718;2023-02-01T04:07:48;24.03;;;3.87;;
20559;SDS011;10438;51.454;6.718;2023-02-01T04:10:14;24.03;;;4.37;;
20559;SDS011;10438;51.454;6.718;2023-02-01T04:12:40;18.53;;;3.97;;
20559;SDS011;10438;51.454;6.718;2023-02-01T04:15:06;20.77;;;4.50;;
20559;SDS011;10438;51.454;6.718;2023-02-01T04:17:32;20.53;;;4.47;;
20559;SDS011;10438;51.454;6.718;2023-02-01T04:19:58;23.67;;;4.17;;
20559;SDS011;10438;51.454;6.718;2023-02-01T04:22:23;27.63;;;4.43;;
20559;SDS011;10438;51.454;6.718;2023-02-01T04:24:49;20.60;;;3.73;;
20559;SDS011;10438;51.454;6.718;2023-02-01T04:27:15;22.50;;;3.80;;
20559;SDS011;10438;51.454;6.718;2023-02-01T04:29:41;23.87;;;4.67;;
20559;SDS011;10438;51.454;6.718;2023-02-01T04:32:06;24.33;;;3.80;;
20559;SDS011;10438;51.454;6.718;2023-02-01T04:34:32;18.57;;;3.53;;
20559;SDS011;10438;51.454;6.718;2023-02-01T04:36:57;21.63;;;3.90;;
20559;SDS011;10438;51.454;6.718;2023-02-01T04:39:23;20.23;;;4.00;;
20559;SDS011;10438;51.454;6.718;2023-02-01T04:41:49;22.63;;;4.03;;
20559;SDS011;10438;51.454;6.718;2023-02-01T04:44:15;18.30;;;3.87;;
20559;SDS011;10438;51.454;6.718;2023-02-01T04:46:42;24.30;;;4.23;;
20559;SDS011;10438;51.454;6.718;2023-02-01T04:49:12;19.37;;;3.77;;
20559;SDS011;10438;51.454;6.718;2023-02-01T04:51:38;30.53;;;4.10;;
20559;SDS011;10438;51.454;6.718;2023-02-01T04:54:04;23.20;;;3.80;;
20559;SDS011;10438;51.454;6.718;2023-02-01T04:56:30;26.77;;;4.43;;
20559;SDS011;10438;51.454;6.718;2023-02-01T04:58:56;18.13;;;3.43;;
20559;SDS011;10438;51.454;6.718;2023-02-01T05:01:22;24.83;;;3.93;;
20559;SDS011;10438;51.454;6.718;2023-02-01T05:03:49;24.47;;;3.50;;
20559;SDS011;10438;51.454;6.718;2023-02-01T05:06:15;27.90;;;4.17;;
20559;SDS011;10438;51.454;6.718;2023-02-01T05:08:41;22.17;;;3.70;;
20559;SDS011;10438;51.454;6.718;2023-02-01T05:11:06;21.87;;;3.50;;
20559;SDS011;10438;51.454;6.718;2023-02-01T05:13:52;22.37;;;3.97;;
20559;SDS011;10438;51.454;6.718;2023-02-01T05:16:17;19.97;;;3.40;;
20559;SDS011;10438;51.454;6.718;2023-02-01T05:18:43;19.17;;;3.57;;
20559;SDS011;10438;51.454;6.718;2023-02-01T05:21:09;33.83;;;4.43;;
20559;SDS011;10438;51.454;6.718;2023-02-01T05:23:34;19.37;;;4.10;;
20559;SDS011;10438;51.454;6.718;2023-02-01T05:26:23;24.97;;;3.63;;
20559;SDS011;10438;51.454;6.718;2023-02-01T05:28:49;26.90;;;3.70;;
20559;SDS011;10438;51.454;6.718;2023-02-01T05:31:15;21.70;;;3.83;;
20559;SDS011;10438;51.454;6.718;2023-02-01T05:33:41;22.77;;;3.20;;
20559;SDS011;10438;51.454;6.718;2023-02-01T05:36:06;22.83;;;4.03;;
20559;SDS011;10438;51.454;6.718;2023-02-01T05:38:32;21.40;;;3.87;;
20559;SDS011;10438;51.454;6.718;2023-02-01T05:40:58;23.57;;;3.73;;
20559;SDS011;10438;51.454;6.718;2023-02-01T05:43:23;18.83;;;3.07;;
20559;SDS011;10438;51.454;6.718;2023-02-01T05:45:49;26.67;;;3.47;;
20559;SDS011;10438;51.454;6.718;2023-02-01T05:48:17;23.70;;;4.40;;
20559;SDS011;10438;51.454;6.718;2023-02-01T05:50:42;20.10;;;3.17;;
20559;SDS011;10438;51.454;6.718;2023-02-01T05:53:08;22.00;;;3.70;;
20559;SDS011;10438;51.454;6.718;2023-02-01T05:55:33;19.83;;;3.20;;
20559;SDS011;10438;51.454;6.718;2023-02-01T05:57:59;21.13;;;3.90;;
20559;SDS011;10438;51.454;6.718;2023-02-01T06:00:25;24.33;;;3.67;;
20559;SDS011;10438;51.454;6.718;2023-02-01T06:02:50;27.43;;;4.03;;
20559;SDS011;10438;51.454;6.718;2023-02-01T06:05:16;28.10;;;3.73;;
20559;SDS011;10438;51.454;6.718;2023-02-01T06:07:41;19.60;;;4.43;;
20559;SDS011;10438;51.454;6.718;2023-02-01T06:10:07;28.47;;;4.77;;
20559;SDS011;10438;51.454;6.718;2023-02-01T06:12:36;20.20;;;4.30;;
20559;SDS011;10438;51.454;6.718;2023-02-01T06:15:02;19.20;;;3.40;;
20559;SDS011;10438;51.454;6.718;2023-02-01T06:17:27;34.57;;;4.50;;
20559;SDS011;10438;51.454;6.718;2023-02-01T06:19:53;17.87;;;3.50;;
20559;SDS011;10438;51.454;6.718;2023-02-01T06:22:18;32.27;;;4.67;;
20559;SDS011;10438;51.454;6.718;2023-02-01T06:24:44;20.63;;;4.13;;
20559;SDS011;10438;51.454;6.718;2023-02-01T06:27:10;19.00;;;3.20;;
20559;SDS011;10438;51.454;6.718;2023-02-01T06:29:35;22.53;;;3.67;;
20559;SDS011;10438;51.454;6.718;2023-02-01T06:32:01;28.33;;;4.43;;
20559;SDS011;10438;51.454;6.718;2023-02-01T06:34:28;24.17;;;4.30;;
20559;SDS011;10438;51.454;6.718;2023-02-01T06:36:53;26.87;;;3.70;;
20559;SDS011;10438;51.454;6.718;2023-02-01T06:39:19;27.63;;;4.53;;
20559;SDS011;10438;51.454;6.718;2023-02-01T06:41:46;20.47;;;3.90;;
20559;SDS011;10438;51.454;6.718;2023-02-01T06:44:13;23.33;;;4.13;;
20559;SDS011;10438;51.454;6.718;2023-02-01T06:46:38;24.60;;;3.67;;
20559;SDS011;10438;51.454;6.718;2023-02-01T06:49:04;21.83;;;3.37;;
20559;SDS011;10438;51.454;6.718;2023-02-01T06:51:29;17.53;;;3.73;;
20559;SDS011;10438;51.454;6.718;2023-02-01T06:53:55;28.13;;;3.73;;
20559;SDS011;10438;51.454;6.718;2023-02-01T06:56:21;29.87;;;4.10;;
20559;SDS011;10438;51.454;6.718;2023-02-01T06:58:47;28.80;;;5.00;;
20559;SDS011;10438;51.454;6.718;2023-02-01T07:01:13;17.30;;;3.87;;
20559;SDS011;10438;51.454;6.718;2023-02-01T07:03:39;17.93;;;3.20;;
20559;SDS011;10438;51.454;6.718;2023-02-01T07:06:06;26.07;;;4.00;;
20559;SDS011;10438;51.454;6.718;2023-02-01T07:08:32;24.33;;;3.87;;
20559;SDS011;10438;51.454;6.718;2023-02-01T07:11:03;17.67;;;3.80;;
20559;SDS011;10438;51.454;6.718;2023-02-01T07:13:30;17.10;;;3.33;;
20559;SDS011;10438;51.454;6.718;2023-02-01T07:16:03;19.80;;;3.90;;
20559;SDS011;10438;51.454;6.718;2023-02-01T07:18:30;23.13;;;3.10;;
20559;SDS011;10438;51.454;6.718;2023-02-01T07:20:57;24.67;;;5.00;;
20559;SDS011;10438;51.454;6.718;2023-02-01T07:23:23;24.30;;;4.07;;
20559;SDS011;10438;51.454;6.718;2023-02-01T07:25:52;19.13;;;3.43;;
20559;SDS011;10438;51.454;6.718;2023-02-01T07:28:19;26.17;;;4.63;;
20559;SDS011;10438;51.454;6.718;2023-02-01T07:30:45;26.20;;;4.57;;
20559;SDS011;10438;51.454;6.718;2023-02-01T07:33:15;29.13;;;4.23;;
20559;SDS011;10438;51.454;6.718;2023-02-01T07:35:45;26.73;;;5.00;;
20559;SDS011;10438;51.454;6.718;2023-02-01T07:38:12;25.03;;;3.50;;
20559;SDS011;10438;51.454;6.718;2023-02-01T07:40:37;23.13;;;4.47;;
20559;SDS011;10438;51.454;6.718;2023-02-01T07:43:03;22.13;;;4.30;;
20559;SDS011;10438;51.454;6.718;2023-02-01T07:45:31;23.03;;;4.17;;
20559;SDS011;10438;51.454;6.718;2023-02-01T07:47:56;17.97;;;4.03;;
20559;SDS011;10438;51.454;6.718;2023-02-01T07:50:22;15.40;;;3.60;;
20559;SDS011;10438;51.454;6.718;2023-02-01T07:52:47;27.97;;;4.33;;
20559;SDS011;10438;51.454;6.718;2023-02-01T07:55:13;23.83;;;4.23;;
20559;SDS011;10438;51.454;6.718;2023-02-01T07:57:38;28.90;;;4.33;;
20559;SDS011;10438;51.454;6.718;2023-02-01T08:00:04;28.93;;;4.57;;
20559;SDS011;10438;51.454;6.718;2023-02-01T08:02:48;27.27;;;4.27;;
20559;SDS011;10438;51.454;6.718;2023-02-01T08:05:14;29.07;;;4.43;;
20559;SDS011;10438;51.454;6.718;2023-02-01T08:07:39;24.60;;;4.17;;
20559;SDS011;10438;51.454;6.718;2023-02-01T08:10:05;28.77;;;4.37;;
20559;SDS011;10438;51.454;6.718;2023-02-01T08:12:35;19.73;;;3.63;;
20559;SDS011;10438;51.454;6.718;2023-02-01T08:15:01;29.87;;;4.50;;
20559;SDS011;10438;51.454;6.718;2023-02-01T08:17:27;29.27;;;4.10;;
20559;SDS011;10438;51.454;6.718;2023-02-01T08:19:54;17.63;;;3.93;;
20559;SDS011;10438;51.454;6.718;2023-02-01T08:22:19;22.93;;;4.13;;
20559;SDS011;10438;51.454;6.718;2023-02-01T08:24:47;21.97;;;4.17;;
20559;SDS011;10438;51.454;6.718;2023-02-01T08:27:13;28.73;;;4.90;;
20559;SDS011;10438;51.454;6.718;2023-02-01T08:29:39;27.23;;;4.10;;
20559;SDS011;10438;51.454;6.718;2023-02-01T08:32:05;24.90;;;4.67;;
20559;SDS011;10438;51.454;6.718;2023-02-01T08:34:30;30.43;;;5.97;;
20559;SDS011;10438;51.454;6.718;2023-02-01T08:36:56;21.10;;;4.37;;
20559;SDS011;10438;51.454;6.718;2023-02-01T08:39:25;29.10;;;4.67;;
20559;SDS011;10438;51.454;6.718;2023-02-01T08:41:51;27.97;;;4.57;;
20559;SDS011;10438;51.454;6.718;2023-02-01T08:44:35;22.20;;;3.60;;
20559;SDS011;10438;51.454;6.718;2023-02-01T08:47:01;21.50;;;4.17;;
20559;SDS011;10438;51.454;6.718;2023-02-01T08:49:28;22.37;;;3.90;;
20559;SDS011;10438;51.454;6.718;2023-02-01T08:51:53;25.83;;;4.47;;
20559;SDS011;10438;51.454;6.718;2023-02-01T08:54:20;26.03;;;4.43;;
20559;SDS011;10438;51.454;6.718;2023-02-01T08:56:46;19.13;;;3.80;;
20559;SDS011;10438;51.454;6.718;2023-02-01T08:59:11;25.97;;;4.07;;
20559;SDS011;10438;51.454;6.718;2023-02-01T09:01:37;22.13;;;4.00;;
20559;SDS011;10438;51.454;6.718;2023-02-01T09:04:02;21.27;;;5.07;;
20559;SDS011;10438;51.454;6.718;2023-02-01T09:06:28;21.50;;;3.90;;
20559;SDS011;10438;51.454;6.718;2023-02-01T09:08:53;24.73;;;4.27;;
20559;SDS011;10438;51.454;6.718;2023-02-01T09:11:19;25.33;;;4.57;;
20559;SDS011;10438;51.454;6.718;2023-02-01T09:13:44;23.83;;;4.30;;
20559;SDS011;10438;51.454;6.718;2023-02-01T09:16:11;30.33;;;4.47;;
20559;SDS011;10438;51.454;6.718;2023-02-01T09:18:37;23.27;;;3.83;;
20559;SDS011;10438;51.454;6.718;2023-02-01T09:21:06;25.20;;;4.27;;
20559;SDS011;10438;51.454;6.718;2023-02-01T09:23:32;19.10;;;4.13;;
20559;SDS011;10438;51.454;6.718;2023-02-01T09:26:02;24.27;;;3.93;;
20559;SDS011;10438;51.454;6.718;2023-02-01T09:28:28;20.97;;;3.90;;
20559;SDS011;10438;51.454;6.718;2023-02-01T09:30:55;20.17;;;4.13;;
20559;SDS011;10438;51.454;6.718;2023-02-01T09:33:22;27.07;;;4.80;;
20559;SDS011;10438;51.454;6.718;2023-02-01T09:35:48;22.77;;;3.90;;
20559;SDS011;10438;51.454;6.718;2023-02-01T09:38:14;27.17;;;4.97;;
20559;SDS011;10438;51.454;6.718;2023-02-01T09:40:42;23.77;;;4.13;;
20559;SDS011;10438;51.454;6.718;2023-02-01T09:48:33;21.07;;;4.77;;
20559;SDS011;10438;51.454;6.718;2023-02-01T09:51:04;21.17;;;4.23;;
20559;SDS011;10438;51.454;6.718;2023-02-01T09:53:37;24.23;;;3.50;;
20559;SDS011;10438;51.454;6.718;2023-02-01T09:56:10;20.70;;;3.67;;
20559;SDS011;10438;51.454;6.718;2023-02-01T09:58:55;26.03;;;4.30;;
20559;SDS011;10438;51.454;6.718;2023-02-01T10:01:27;24.27;;;3.50;;
20559;SDS011;10438;51.454;6.718;2023-02-01T10:04:05;19.97;;;4.17;;
20559;SDS011;10438;51.454;6.718;2023-02-01T10:17:31;18.53;;;3.23;;
20559;SDS011;10438;51.454;6.718;2023-02-01T10:28:36;22.57;;;4.20;;
20559;SDS011;10438;51.454;6.718;2023-02-01T10:31:02;17.17;;;3.70;;
20559;SDS011;10438;51.454;6.718;2023-02-01T10:33:33;18.43;;;3.60;;
20559;SDS011;10438;51.454;6.718;2023-02-01T10:36:10;20.00;;;3.67;;
20559;SDS011;10438;51.454;6.718;2023-02-01T10:38:45;25.63;;;4.37;;
20559;SDS011;10438;51.454;6.718;2023-02-01T10:41:20;24.30;;;4.37;;
20559;SDS011;10438;51.454;6.718;2023-02-01T10:43:54;17.73;;;3.97;;
20559;SDS011;10438;51.454;6.718;2023-02-01T10:46:23;20.50;;;3.53;;
20559;SDS011;10438;51.454;6.718;2023-02-01T10:48:50;17.90;;;4.17;;
20559;SDS011;10438;51.454;6.718;2023-02-01T10:51:27;24.53;;;3.87;;
20559;SDS011;10438;51.454;6.718;2023-02-01T10:54:12;24.40;;;4.33;;
20559;SDS011;10438;51.454;6.718;2023-02-01T10:56:45;20.07;;;4.10;;
20559;SDS011;10438;51.454;6.718;2023-02-01T10:59:18;26.73;;;4.70;;
20559;SDS011;10438;51.454;6.718;2023-02-01T11:01:48;27.27;;;4.00;;
20559;SDS011;10438;51.454;6.718;2023-02-01T11:04:15;20.17;;;4.13;;
20559;SDS011;10438;51.454;6.718;2023-02-01T11:06:49;22.03;;;4.40;;
20559;SDS011;10438;51.454;6.718;2023-02-01T11:09:19;21.50;;;3.60;;
20559;SDS011;10438;51.454;6.718;2023-02-01T11:16:49;14.90;;;3.57;;
20559;SDS011;10438;51.454;6.718;2023-02-01T11:19:38;25.77;;;3.93;;
20559;SDS011;10438;51.454;6.718;2023-02-01T11:22:04;19.07;;;3.57;;
20559;SDS011;10438;51.454;6.718;2023-02-01T11:24:35;19.63;;;4.10;;
20559;SDS011;10438;51.454;6.718;2023-02-01T11:27:03;22.03;;;4.03;;
20559;SDS011;10438;51.454;6.718;2023-02-01T11:29:38;25.90;;;4.17;;
20559;SDS011;10438;51.454;6.718;2023-02-01T11:32:06;25.67;;;3.87;;
20559;SDS011;10438;51.454;6.718;2023-02-01T11:34:37;19.07;;;3.43;;
20559;SDS011;10438;51.454;6.718;2023-02-01T11:37:11;22.63;;;3.53;;
20559;SDS011;10438;51.454;6.718;2023-02-01T11:40:03;19.23;;;3.43;;
20559;SDS011;10438;51.454;6.718;2023-02-01T11:42:59;25.60;;;4.00;;
20559;SDS011;10438;51.454;6.718;2023-02-01T11:45:30;22.70;;;3.87;;
20559;SDS011;10438;51.454;6.718;2023-02-01T11:47:58;27.10;;;4.00;;
20559;SDS011;10438;51.454;6.718;2023-02-01T11:50:28;27.73;;;3.77;;
20559;SDS011;10438;51.454;6.718;2023-02-01T11:53:25;18.33;;;3.43;;
20559;SDS011;10438;51.454;6.718;2023-02-01T11:56:15;22.70;;;4.27;;
20559;SDS011;10438;51.454;6.718;2023-02-01T12:01:58;19.67;;;4.00;;
20559;SDS011;10438;51.454;6.718;2023-02-01T12:05:07;24.67;;;4.53;;
20559;SDS011;10438;51.454;6.718;2023-02-01T12:07:51;25.13;;;3.40;;
20559;SDS011;10438;51.454;6.718;2023-02-01T12:10:39;21.63;;;3.93;;
20559;SDS011;10438;51.454;6.718;2023-02-01T12:13:22;20.40;;;3.40;;
20559;SDS011;10438;51.454;6.718;2023-02-01T12:22:00;13.10;;;2.53;;
20559;SDS011;10438;51.454;6.718;2023-02-01T12:24:54;18.53;;;3.50;;
20559;SDS011;10438;51.454;6.718;2023-02-01T12:30:36;18.23;;;3.00;;
20559;SDS011;10438;51.454;6.718;2023-02-01T12:36:13;15.03;;;2.90;;
20559;SDS011;10438;51.454;6.718;2023-02-01T12:38:54;11.00;;;2.37;;
20559;SDS011;10438;51.454;6.718;2023-02-01T12:41:36;15.63;;;2.80;;
20559;SDS011;10438;51.454;6.718;2023-02-01T12:46:50;16.30;;;3.33;;
20559;SDS011;10438;51.454;6.718;2023-02-01T12:52:15;14.47;;;2.93;;
20559;SDS011;10438;51.454;6.718;2023-02-01T12:57:49;17.40;;;2.90;;
20559;SDS011;10438;51.454;6.718;2023-02-01T13:00:45;13.00;;;2.50;;
20559;SDS011;10438;51.454;6.718;2023-02-01T13:06:05;20.73;;;3.43;;
20559;SDS011;10438;51.454;6.718;2023-02-01T13:08:43;22.00;;;3.40;;
20559;SDS011;10438;51.454;6.718;2023-02-01T13:11:13;22.23;;;3.03;;
20559;SDS011;10438;51.454;6.718;2023-02-01T13:13:48;17.53;;;2.87;;
20559;SDS011;10438;51.454;6.718;2023-02-01T13:16:23;16.97;;;2.97;;
20559;SDS011;10438;51.454;6.718;2023-02-01T13:18:55;21.37;;;3.20;;
20559;SDS011;10438;51.454;6.718;2023-02-01T13:21:43;17.00;;;2.67;;
20559;SDS011;10438;51.454;6.718;2023-02-01T13:27:13;19.53;;;3.03;;
20559;SDS011;10438;51.454;6.718;2023-02-01T13:30:22;14.73;;;2.97;;
20559;SDS011;10438;51.454;6.718;2023-02-01T13:38:38;13.20;;;2.50;;
20559;SDS011;10438;51.454;6.718;2023-02-01T13:41:31;15.80;;;2.93;;
20559;SDS011;10438;51.454;6.718;2023-02-01T13:44:09;16.10;;;3.13;;
20559;SDS011;10438;51.454;6.718;2023-02-01T13:46:40;21.60;;;2.90;;
20559;SDS011;10438;51.454;6.718;2023-02-01T13:49:43;16.37;;;2.90;;
20559;SDS011;10438;51.454;6.718;2023-02-01T13:52:03;22.03;;;2.97;;
20559;SDS011;10438;51.454;6.718;2023-02-01T13:54:34;18.80;;;3.10;;
20559;SDS011;10438;51.454;6.718;2023-02-01T13:57:03;18.53;;;3.37;;
20559;SDS011;10438;51.454;6.718;2023-02-01T13:59:48;16.53;;;2.83;;
20559;SDS011;10438;51.454;6.718;2023-02-01T14:05:03;15.90;;;2.40;;
20559;SDS011;10438;51.454;6.718;2023-02-01T14:07:33;19.80;;;3.30;;
20559;SDS011;10438;51.454;6.718;2023-02-01T14:10:08;19.73;;;3.17;;
20559;SDS011;10438;51.454;6.718;2023-02-01T14:13:03;13.70;;;2.67;;
20559;SDS011;10438;51.454;6.718;2023-02-01T14:16:10;16.70;;;2.43;;
20559;SDS011;10438;51.454;6.718;2023-02-01T14:23:41;17.17;;;2.53;;
20559;SDS011;10438;51.454;6.718;2023-02-01T14:26:10;19.77;;;3.80;;
20559;SDS011;10438;51.454;6.718;2023-02-01T14:28:49;16.13;;;3.00;;
20559;SDS011;10438;51.454;6.718;2023-02-01T14:34:00;16.50;;;2.53;;
20559;SDS011;10438;51.454;6.718;2023-02-01T14:36:42;22.83;;;2.73;;
20559;SDS011;10438;51.454;6.718;2023-02-01T14:47:47;16.77;;;3.63;;
20559;SDS011;10438;51.454;6.718;2023-02-01T14:53:10;19.33;;;2.90;;
20559;SDS011;10438;51.454;6.718;2023-02-01T15:00:50;17.23;;;2.97;;
20559;SDS011;10438;51.454;6.718;2023-02-01T15:05:56;13.07;;;2.67;;
20559;SDS011;10438;51.454;6.718;2023-02-01T15:08:25;21.00;;;3.53;;
20559;SDS011;10438;51.454;6.718;2023-02-01T15:11:01;19.87;;;4.00;;
20559;SDS011;10438;51.454;6.718;2023-02-01T15:13:29;17.73;;;2.47;;
20559;SDS011;10438;51.454;6.718;2023-02-01T15:16:05;27.20;;;3.00;;
20559;SDS011;10438;51.454;6.718;2023-02-01T15:18:31;19.20;;;2.67;;
20559;SDS011;10438;51.454;6.718;2023-02-01T15:21:01;20.47;;;2.83;;
20559;SDS011;10438;51.454;6.718;2023-02-01T15:23:28;16.00;;;2.90;;
20559;SDS011;10438;51.454;6.718;2023-02-01T15:25:54;15.90;;;3.10;;
20559;SDS011;10438;51.454;6.718;2023-02-01T15:28:20;14.80;;;2.60;;
20559;SDS011;10438;51.454;6.718;2023-02-01T15:33:26;19.73;;;2.97;;
20559;SDS011;10438;51.454;6.718;2023-02-01T15:35:54;17.67;;;2.60;;
20559;SDS011;10438;51.454;6.718;2023-02-01T15:38:44;19.37;;;3.00;;
20559;SDS011;10438;51.454;6.718;2023-02-01T15:41:14;15.33;;;2.63;;
20559;SDS011;10438;51.454;6.718;2023-02-01T15:46:22;19.67;;;2.93;;
20559;SDS011;10438;51.454;6.718;2023-02-01T15:48:55;19.00;;;3.33;;
20559;SDS011;10438;51.454;6.718;2023-02-01T15:51:22;15.97;;;2.93;;
20559;SDS011;10438;51.454;6.718;2023-02-01T15:53:55;19.60;;;4.07;;
20559;SDS011;10438;51.454;6.718;2023-02-01T15:56:34;18.90;;;2.97;;
20559;SDS011;10438;51.454;6.718;2023-02-01T15:59:02;16.07;;;2.73;;
20559;SDS011;10438;51.454;6.718;2023-02-01T16:01:37;18.87;;;3.77;;
20559;SDS011;10438;51.454;6.718;2023-02-01T16:04:16;20.10;;;3.17;;
20559;SDS011;10438;51.454;6.718;2023-02-01T16:06:52;15.17;;;2.60;;
20559;SDS011;10438;51.454;6.718;2023-02-01T16:09:21;17.27;;;2.60;;
20559;SDS011;10438;51.454;6.718;2023-02-01T16:11:59;17.60;;;3.37;;
20559;SDS011;10438;51.454;6.718;2023-02-01T16:14:26;25.73;;;3.40;;
20559;SDS011;10438;51.454;6.718;2023-02-01T16:16:52;11.60;;;2.60;;
20559;SDS011;10438;51.454;6.718;2023-02-01T16:19:19;16.70;;;3.47;;
20559;SDS011;10438;51.454;6.718;2023-02-01T16:21:46;19.17;;;3.40;;
20559;SDS011;10438;51.454;6.718;2023-02-01T16:24:11;20.47;;;3.33;;
20559;SDS011;10438;51.454;6.718;2023-02-01T16:26:37;16.53;;;3.00;;
20559;SDS011;10438;51.454;6.718;2023-02-01T16:29:03;18.00;;;2.50;;
20559;SDS011;10438;51.454;6.718;2023-02-01T16:31:32;20.40;;;3.23;;
20559;SDS011;10438;51.454;6.718;2023-02-01T16:34:00;16.77;;;3.13;;
20559;SDS011;10438;51.454;6.718;2023-02-01T16:36:26;21.10;;;3.07;;
20559;SDS011;10438;51.454;6.718;2023-02-01T16:38:53;18.73;;;3.40;;
20559;SDS011;10438;51.454;6.718;2023-02-01T16:41:19;23.13;;;3.70;;
20559;SDS011;10438;51.454;6.718;2023-02-01T16:43:50;18.43;;;3.70;;
20559;SDS011;10438;51.454;6.718;2023-02-01T16:46:19;21.80;;;3.13;;
20559;SDS011;10438;51.454;6.718;2023-02-01T16:48:49;18.13;;;3.37;;
20559;SDS011;10438;51.454;6.718;2023-02-01T16:51:18;19.93;;;2.77;;
20559;SDS011;10438;51.454;6.718;2023-02-01T21:56:16;17.07;;;3.57;;
20559;SDS011;10438;51.454;6.718;2023-02-01T21:58:42;16.60;;;3.87;;
20559;SDS011;10438;51.454;6.718;2023-02-01T22:01:07;23.20;;;3.53;;
20559;SDS011;10438;51.454;6.718;2023-02-01T22:03:33;20.60;;;3.70;;
20559;SDS011;10438;51.454;6.718;2023-02-01T22:05:58;17.70;;;3.97;;
20559;SDS011;10438;51.454;6.718;2023-02-01T22:08:24;18.30;;;4.23;;
20559;SDS011;10438;51.454;6.718;2023-02-01T22:10:50;20.47;;;3.53;;